createdAt,value
2023-03-25T00:05:59.156Z,99981.00
2023-03-25T00:08:49.633Z,99983.00
2023-03-25T00:16:02.708Z,99968.00
2023-03-25T00:18:44.435Z,99971.00
2023-03-25T00:33:23.589Z,99964.00
2023-03-25T00:36:22.471Z,99950.00
2023-03-25T00:41:31.589Z,99952.00
2023-03-25T00:44:07.924Z,99961.00
2023-03-25T00:46:48.183Z,99959.00
2023-03-25T00:49:15.726Z,99968.00
2023-03-25T00:52:38.808Z,99952.00
2023-03-25T00:55:31.354Z,99946.00
2023-03-25T00:58:36.763Z,99971.00
2023-03-25T01:01:37.158Z,99953.00
2023-03-25T01:04:30.890Z,99959.00
2023-03-25T01:08:17.710Z,99944.00
2023-03-25T01:16:35.169Z,99965.00
2023-03-25T01:19:25.225Z,99960.00
2023-03-25T01:22:26.876Z,99955.00
2023-03-25T01:28:56.919Z,99968.00
2023-03-25T01:32:01.399Z,99949.00
2023-03-25T01:41:18.720Z,99959.00
2023-03-25T01:54:59.046Z,99968.00
2023-03-25T02:08:51.948Z,99945.00
2023-03-25T02:14:47.426Z,99961.00
2023-03-25T02:18:00.738Z,99972.00
2023-03-25T02:21:50.745Z,99976.00
2023-03-25T02:29:09.619Z,99968.00
2023-03-25T02:32:24.692Z,99967.00
2023-03-25T02:36:14.568Z,99956.00
2023-03-25T02:39:41.412Z,99965.00
2023-03-25T02:44:14.375Z,99958.00
2023-03-25T02:46:42.975Z,99964.00
2023-03-25T02:49:50.824Z,99951.00
2023-03-25T02:53:24.279Z,99944.00
2023-03-25T02:56:31.309Z,99941.00
2023-03-25T02:59:50.869Z,99950.00
2023-03-25T03:02:53.120Z,99944.00
2023-03-25T03:06:26.236Z,99949.00
2023-03-25T03:09:44.803Z,99949.00
2023-03-25T03:13:29.517Z,99943.00
2023-03-25T03:17:25.921Z,99935.00
2023-03-25T03:20:55.243Z,99940.00
2023-03-25T03:24:11.747Z,99939.00
2023-03-25T03:27:50.397Z,99935.00
2023-03-25T03:30:57.211Z,99931.00
2023-03-25T03:34:37.187Z,99929.00
2023-03-25T03:38:14.293Z,99935.00
2023-03-25T03:41:44.068Z,99945.00
2023-03-25T03:45:04.153Z,99950.00
2023-03-25T03:48:45.736Z,99942.00
2023-03-25T03:55:44.473Z,99941.00
2023-03-25T04:03:43.360Z,99942.00
2023-03-25T04:07:08.747Z,99936.00
2023-03-25T04:14:11.361Z,99923.00
2023-03-25T04:17:42.561Z,99929.00
2023-03-25T04:21:36.669Z,99926.00
2023-03-25T04:27:51.223Z,99947.00
2023-03-25T04:31:20.275Z,99921.00
2023-03-25T04:33:48.717Z,99936.00
2023-03-25T04:39:36.714Z,99934.00
2023-03-25T04:42:26.249Z,99962.00
2023-03-25T04:48:17.283Z,99940.00
2023-03-25T04:50:44.433Z,99933.00
2023-03-25T04:57:14.447Z,99930.00
2023-03-25T04:59:44.568Z,99949.00
2023-03-25T05:02:54.325Z,99955.00
2023-03-25T05:05:38.605Z,99940.00
2023-03-25T05:11:20.364Z,99935.00
2023-03-25T05:13:56.804Z,99943.00
2023-03-25T05:23:31.711Z,99942.00
2023-03-25T05:29:37.571Z,99946.00
2023-03-25T05:33:01.881Z,99961.00
2023-03-25T05:36:24.700Z,99961.00
2023-03-25T05:39:15.977Z,99942.00
2023-03-25T05:48:13.267Z,99972.00
2023-03-25T05:51:17.944Z,99949.00
2023-03-25T05:54:18.835Z,99950.00
2023-03-25T05:59:35.424Z,99969.00
2023-03-25T06:05:42.504Z,99955.00
2023-03-25T06:09:12.348Z,99964.00
2023-03-25T06:18:40.841Z,99969.00
2023-03-25T06:21:55.734Z,99976.00
2023-03-25T06:25:06.532Z,99961.00
2023-03-25T06:27:41.393Z,99973.00
2023-03-25T06:31:21.398Z,99981.00
2023-03-25T06:34:02.303Z,99979.00
2023-03-25T06:36:31.699Z,99972.00
2023-03-25T06:39:20.717Z,99981.00
2023-03-25T06:42:09.279Z,99979.00
2023-03-25T06:44:50.702Z,99991.00
2023-03-25T06:47:25.495Z,99993.00
2023-03-25T06:50:11.156Z,99990.00
2023-03-25T06:53:03.183Z,99975.00
2023-03-25T06:56:09.173Z,99988.00
2023-03-25T06:59:05.567Z,99972.00
2023-03-25T07:02:11.396Z,99980.00
2023-03-25T07:04:43.361Z,99997.00
2023-03-25T07:07:22.198Z,99987.00
2023-03-25T07:10:05.017Z,99989.00
2023-03-25T07:12:47.520Z,99985.00
2023-03-25T07:15:32.248Z,99973.00
2023-03-25T07:18:21.616Z,99976.00
2023-03-25T07:21:00.564Z,99991.00
2023-03-25T07:24:22.016Z,99986.00
2023-03-25T07:26:54.410Z,99982.00
2023-03-25T07:29:22.416Z,99984.00
2023-03-25T07:31:49.834Z,99994.00
2023-03-25T07:34:44.900Z,100003.00
2023-03-25T07:37:39.989Z,99993.00
2023-03-25T07:40:38.831Z,99984.00
2023-03-25T07:43:12.818Z,100002.00
2023-03-25T07:45:49.533Z,99988.00
2023-03-25T07:48:29.872Z,99991.00
2023-03-25T07:52:17.009Z,100008.00
2023-03-25T07:54:54.546Z,99998.00
2023-03-25T07:57:27.618Z,100008.00
2023-03-25T08:00:01.512Z,99996.00
2023-03-25T08:02:36.937Z,99993.00
2023-03-25T08:05:06.003Z,99997.00
2023-03-25T08:07:34.339Z,100005.00
2023-03-25T08:10:03.096Z,99997.00
2023-03-25T08:12:30.484Z,100004.00
2023-03-25T08:15:01.748Z,99998.00
2023-03-25T08:17:31.516Z,99996.00
2023-03-25T08:20:06.429Z,100005.00
2023-03-25T08:25:26.466Z,100004.00
2023-03-25T08:28:08.720Z,99992.00
2023-03-25T08:30:55.493Z,100031.00
2023-03-25T08:33:36.607Z,100027.00
2023-03-25T08:36:20.324Z,100002.00
2023-03-25T08:39:13.257Z,100026.00
2023-03-25T08:41:54.887Z,100025.00
2023-03-25T08:44:23.337Z,100012.00
2023-03-25T08:46:56.590Z,100015.00
2023-03-25T08:49:24.362Z,100032.00
2023-03-25T08:51:51.843Z,100007.00
2023-03-25T08:54:30.131Z,100028.00
2023-03-25T08:57:01.596Z,100033.00
2023-03-25T08:59:35.322Z,100033.00
2023-03-25T09:02:11.535Z,100021.00
2023-03-25T09:04:46.628Z,100020.00
2023-03-25T09:07:16.740Z,100021.00
2023-03-25T09:09:55.237Z,100003.00
2023-03-25T09:12:27.974Z,100006.00
2023-03-25T09:15:02.299Z,100009.00
2023-03-25T09:17:44.976Z,100008.00
2023-03-25T09:20:19.258Z,100017.00
2023-03-25T09:23:01.654Z,100019.00
2023-03-25T09:25:37.402Z,100015.00
2023-03-25T09:28:24.703Z,100015.00
2023-03-25T09:31:34.652Z,100042.00
2023-03-25T09:34:24.203Z,100029.00
2023-03-25T09:37:24.310Z,100035.00
2023-03-25T09:40:10.964Z,100042.00
2023-03-25T09:43:38.992Z,100043.00
2023-03-25T09:46:30.685Z,100028.00
2023-03-25T09:49:07.299Z,100041.00
2023-03-25T09:52:02.419Z,100011.00
2023-03-25T09:54:37.524Z,100040.00
2023-03-25T09:57:34.478Z,100030.00
2023-03-25T10:00:45.763Z,100042.00
2023-03-25T10:03:35.401Z,100033.00
2023-03-25T10:06:25.411Z,100054.00
2023-03-25T10:09:42.986Z,100059.00
2023-03-25T10:12:46.341Z,100064.00
2023-03-25T10:15:40.835Z,100065.00
2023-03-25T10:18:30.102Z,100065.00
2023-03-25T10:21:22.680Z,100069.00
2023-03-25T10:24:49.898Z,100077.00
2023-03-25T10:27:42.220Z,100070.00
2023-03-25T10:30:26.682Z,100070.00
2023-03-25T10:33:01.928Z,100077.00
2023-03-25T10:35:40.624Z,100065.00
2023-03-25T10:38:28.633Z,100090.00
2023-03-25T10:41:42.624Z,100091.00
2023-03-25T10:44:22.709Z,100087.00
2023-03-25T10:47:16.106Z,100059.00
2023-03-25T10:49:47.441Z,100078.00
2023-03-25T10:52:16.657Z,100075.00
2023-03-25T10:54:57.407Z,100066.00
2023-03-25T10:57:32.290Z,100073.00
2023-03-25T11:00:19.777Z,100062.00
2023-03-25T11:02:49.545Z,100057.00
2023-03-25T11:05:27.086Z,100068.00
2023-03-25T11:08:18.496Z,100055.00
2023-03-25T11:10:57.934Z,100055.00
2023-03-25T11:13:30.092Z,100060.00
2023-03-25T11:16:04.513Z,100057.00
2023-03-25T11:18:44.020Z,100066.00
2023-03-25T11:21:16.433Z,100050.00
2023-03-25T11:23:53.371Z,100063.00
2023-03-25T11:26:27.895Z,100058.00
2023-03-25T11:29:19.107Z,100057.00
2023-03-25T11:32:09.119Z,100063.00
2023-03-25T11:34:42.599Z,100080.00
2023-03-25T11:37:36.754Z,100091.00
2023-03-25T11:40:20.533Z,100093.00
2023-03-25T11:42:56.116Z,100084.00
2023-03-25T11:45:45.699Z,100101.00
2023-03-25T11:48:20.873Z,100092.00
2023-03-25T11:50:59.945Z,100102.00
2023-03-25T11:53:31.969Z,100086.00
2023-03-25T11:56:12.070Z,100109.00
2023-03-25T11:58:41.204Z,100102.00
2023-03-25T12:01:44.810Z,100108.00
2023-03-25T12:04:20.495Z,100110.00
2023-03-25T12:07:22.567Z,100088.00
2023-03-25T12:10:05.810Z,100101.00
2023-03-25T12:12:59.696Z,100093.00
2023-03-25T12:15:47.334Z,100085.00
2023-03-25T12:18:29.596Z,100095.00
2023-03-25T12:21:44.432Z,100098.00
2023-03-25T12:24:45.041Z,100103.00
2023-03-25T12:27:44.366Z,100116.00
2023-03-25T12:30:28.406Z,100096.00
2023-03-25T12:33:18.705Z,100104.00
2023-03-25T12:36:28.672Z,100118.00
2023-03-25T12:39:39.551Z,100116.00
2023-03-25T12:42:55.534Z,100104.00
2023-03-25T12:46:05.650Z,100097.00
2023-03-25T12:49:30.820Z,100092.00
2023-03-25T12:52:22.170Z,100091.00
2023-03-25T12:55:20.430Z,100097.00
2023-03-25T12:58:27.270Z,100092.00
2023-03-25T13:01:10.326Z,100097.00
2023-03-25T13:03:56.428Z,100107.00
2023-03-25T13:06:45.833Z,100115.00
2023-03-25T13:10:06.215Z,100124.00
2023-03-25T13:13:04.178Z,100119.00
2023-03-25T13:15:55.303Z,100111.00
2023-03-25T13:18:44.803Z,100101.00
2023-03-25T13:21:32.266Z,100127.00
2023-03-25T13:24:50.038Z,100132.00
2023-03-25T13:27:23.020Z,100143.00
2023-03-25T13:29:59.277Z,100120.00
2023-03-25T13:32:48.558Z,100124.00
2023-03-25T13:35:35.644Z,100121.00
2023-03-25T13:38:14.008Z,100128.00
2023-03-25T13:40:51.649Z,100114.00
2023-03-25T13:43:32.317Z,100113.00
2023-03-25T13:46:10.967Z,100131.00
2023-03-25T13:49:07.914Z,100128.00
2023-03-25T13:54:28.159Z,100202.00
2023-03-25T13:57:55.748Z,100161.00
2023-03-25T14:01:15.663Z,100175.00
2023-03-25T14:04:10.242Z,100137.00
2023-03-25T14:07:41.351Z,100147.00
2023-03-25T14:10:40.530Z,100139.00
2023-03-25T14:14:46.926Z,100138.00
2023-03-25T14:21:31.512Z,100130.00
2023-03-25T14:27:35.337Z,100132.00
2023-03-25T14:30:22.446Z,100141.00
2023-03-25T14:33:04.429Z,100145.00
2023-03-25T14:35:35.795Z,100174.00
2023-03-25T14:38:09.438Z,100156.00
2023-03-25T14:41:01.326Z,100154.00
2023-03-25T14:43:53.241Z,100145.00
2023-03-25T14:46:47.796Z,100125.00
2023-03-25T14:49:34.205Z,100145.00
2023-03-25T14:53:11.683Z,100127.00
2023-03-25T14:55:48.547Z,100139.00
2023-03-25T14:58:34.737Z,100101.00
2023-03-25T15:01:46.824Z,100122.00
2023-03-25T15:04:36.280Z,100097.00
2023-03-25T15:07:14.307Z,100108.00
2023-03-25T15:10:01.341Z,100095.00
2023-03-25T15:12:36.786Z,100116.00
2023-03-25T15:15:58.745Z,100120.00
2023-03-25T15:22:14.123Z,100127.00
2023-03-25T15:25:04.177Z,100113.00
2023-03-25T15:27:58.584Z,100107.00
2023-03-25T15:31:02.163Z,100106.00
2023-03-25T15:34:05.566Z,100108.00
2023-03-25T15:41:22.021Z,100113.00
2023-03-25T15:44:21.785Z,100105.00
2023-03-25T15:47:49.181Z,100100.00
2023-03-25T15:50:53.653Z,100116.00
2023-03-25T15:54:04.056Z,100112.00
2023-03-25T15:56:49.978Z,100111.00
2023-03-25T15:59:25.433Z,100126.00
2023-03-25T16:01:54.053Z,100115.00
2023-03-25T16:08:12.301Z,100099.00
2023-03-25T16:10:57.877Z,100098.00
2023-03-25T16:13:34.598Z,100109.00
2023-03-25T16:21:25.555Z,100118.00
2023-03-25T16:23:59.336Z,100128.00
2023-03-25T16:26:53.308Z,100140.00
2023-03-25T16:29:48.427Z,100133.00
2023-03-25T16:33:01.883Z,100136.00
2023-03-25T16:35:29.643Z,100154.00
2023-03-25T16:37:58.736Z,100158.00
2023-03-25T16:40:32.781Z,100158.00
2023-03-25T16:43:30.686Z,100171.00
2023-03-25T16:47:44.935Z,100164.00
2023-03-25T16:51:16.999Z,100150.00
2023-03-25T16:55:24.238Z,100166.00
2023-03-25T17:01:07.457Z,100170.00
2023-03-25T17:04:19.157Z,100193.00
2023-03-25T17:07:36.576Z,100197.00
2023-03-25T17:10:58.444Z,100205.00
2023-03-25T17:13:52.251Z,100205.00
2023-03-25T17:16:23.015Z,100197.00
2023-03-25T17:18:55.751Z,100205.00
2023-03-25T17:24:51.057Z,100213.00
2023-03-25T17:27:27.450Z,100238.00
2023-03-25T17:30:03.506Z,100232.00
2023-03-25T17:32:45.681Z,100234.00
2023-03-25T17:35:31.744Z,100239.00
2023-03-25T17:38:00.042Z,100244.00
2023-03-25T17:40:29.706Z,100243.00
2023-03-25T17:42:58.282Z,100248.00
2023-03-25T17:45:26.432Z,100251.00
2023-03-25T17:47:53.845Z,100264.00
2023-03-25T17:50:25.981Z,100257.00
2023-03-25T17:52:54.160Z,100263.00
2023-03-25T17:55:22.213Z,100249.00
2023-03-25T17:57:50.520Z,100268.00
2023-03-25T18:00:18.967Z,100265.00
2023-03-25T18:02:49.319Z,100259.00
2023-03-25T18:05:51.433Z,100260.00
2023-03-25T18:08:23.396Z,100280.00
2023-03-25T18:11:01.623Z,100278.00
2023-03-25T18:13:59.435Z,100283.00
2023-03-25T18:16:48.434Z,100299.00
2023-03-25T18:19:25.880Z,100286.00
2023-03-25T18:21:54.579Z,100282.00
2023-03-25T18:24:51.159Z,100297.00
2023-03-25T18:27:42.681Z,100286.00
2023-03-25T18:30:40.713Z,100297.00
2023-03-25T18:33:26.463Z,100289.00
2023-03-25T18:35:56.651Z,100290.00
2023-03-25T18:38:26.767Z,100295.00
2023-03-25T18:41:01.109Z,100281.00
2023-03-25T18:43:38.166Z,100277.00
2023-03-25T18:46:05.830Z,100284.00
2023-03-25T18:48:53.578Z,100291.00
2023-03-25T18:51:21.698Z,100283.00
2023-03-25T18:54:54.435Z,100288.00
2023-03-25T18:57:53.424Z,100299.00
2023-03-25T19:00:33.110Z,100302.00
2023-03-25T19:03:00.865Z,100312.00
2023-03-25T19:05:28.545Z,100319.00
2023-03-25T19:08:37.332Z,100315.00
2023-03-25T19:11:19.096Z,100313.00
2023-03-25T19:13:48.472Z,100316.00
2023-03-25T19:16:16.220Z,100320.00
2023-03-25T19:18:43.935Z,100325.00
2023-03-25T19:21:20.211Z,100322.00
2023-03-25T19:23:48.354Z,100335.00
2023-03-25T19:26:16.092Z,100334.00
2023-03-25T19:28:43.451Z,100333.00
2023-03-25T19:31:16.568Z,100343.00
2023-03-25T19:33:44.281Z,100341.00
2023-03-25T19:36:19.006Z,100343.00
2023-03-25T19:38:46.697Z,100336.00
2023-03-25T19:41:16.821Z,100337.00
2023-03-25T19:43:44.667Z,100331.00
2023-03-25T19:46:12.764Z,100324.00
2023-03-25T19:48:40.226Z,100333.00
2023-03-25T19:51:07.617Z,100330.00
2023-03-25T19:53:35.153Z,100326.00
2023-03-25T19:56:05.444Z,100349.00
2023-03-25T19:58:34.987Z,100346.00
2023-03-25T20:01:02.511Z,100343.00
2023-03-25T20:03:47.909Z,100335.00
2023-03-25T20:06:40.442Z,100336.00
2023-03-25T20:12:37.000Z,100330.00
2023-03-25T20:25:47.367Z,100331.00
2023-03-25T20:28:14.734Z,100335.00
2023-03-25T20:30:42.045Z,100339.00
2023-03-25T20:33:09.606Z,100323.00
2023-03-25T20:35:37.372Z,100343.00
2023-03-25T20:38:05.053Z,100345.00
2023-03-25T20:41:06.040Z,100353.00
2023-03-25T20:44:01.544Z,100353.00
2023-03-25T20:51:13.399Z,100365.00
2023-03-25T21:05:12.637Z,100363.00
2023-03-25T21:07:54.994Z,100358.00
2023-03-25T21:10:22.595Z,100355.00
2023-03-25T21:12:50.300Z,100377.00
2023-03-25T21:15:18.349Z,100386.00
2023-03-25T21:22:07.721Z,100405.00
2023-03-25T21:24:36.225Z,100402.00
2023-03-25T21:27:52.808Z,100389.00
2023-03-25T21:50:36.772Z,100407.00
2023-03-25T22:02:48.134Z,100418.00
2023-03-25T22:14:09.954Z,100419.00
2023-03-25T22:16:38.018Z,100407.00
2023-03-25T22:19:07.014Z,100414.00
2023-03-25T22:21:37.719Z,100422.00
2023-03-25T22:24:49.427Z,100401.00
2023-03-25T22:27:17.042Z,100418.00
2023-03-25T22:29:44.848Z,100417.00
2023-03-25T22:35:46.633Z,100427.00
2023-03-25T22:38:26.287Z,100435.00
2023-03-25T22:40:53.550Z,100420.00
2023-03-25T22:43:21.746Z,100425.00
2023-03-25T22:45:59.381Z,100429.00
2023-03-25T22:48:30.404Z,100415.00
2023-03-25T22:50:58.432Z,100423.00
2023-03-25T22:53:27.799Z,100432.00
2023-03-25T22:55:57.395Z,100425.00
2023-03-25T22:58:55.961Z,100416.00
2023-03-25T23:01:26.151Z,100419.00
2023-03-25T23:05:12.149Z,100433.00
2023-03-25T23:07:39.392Z,100428.00
2023-03-25T23:10:14.052Z,100433.00
2023-03-25T23:12:41.472Z,100436.00
2023-03-25T23:15:09.540Z,100428.00
2023-03-25T23:18:07.832Z,100428.00
2023-03-25T23:20:54.678Z,100433.00
2023-03-25T23:23:24.500Z,100432.00
2023-03-25T23:26:28.776Z,100429.00
2023-03-25T23:37:14.028Z,100417.00
2023-03-25T23:39:42.368Z,100418.00
2023-03-25T23:42:09.787Z,100411.00
2023-03-25T23:44:37.482Z,100418.00
2023-03-25T23:47:05.007Z,100406.00
2023-03-25T23:49:34.249Z,100415.00
2023-03-25T23:52:01.748Z,100412.00
2023-03-25T23:54:29.365Z,100408.00
2023-03-25T23:56:57.012Z,100412.00
